sensor_id;sensor_type;location;lat;lon;timestamp;P1;durP1;ratioP1;P2;durP2;ratioP2
19998;SDS011;10160;50.926;4.374;2023-04-24T00:01:40;29.53;;;15.53;;
19998;SDS011;10160;50.926;4.374;2023-04-24T00:04:07;26.90;;;14.10;;
19998;SDS011;10160;50.926;4.374;2023-04-24T00:06:35;29.83;;;14.60;;
19998;SDS011;10160;50.926;4.374;2023-04-24T00:09:03;20.13;;;11.53;;
19998;SDS011;10160;50.926;4.374;2023-04-24T00:11:28;23.90;;;12.70;;
19998;SDS011;10160;50.926;4.374;2023-04-24T00:13:54;28.87;;;12.67;;
19998;SDS011;10160;50.926;4.374;2023-04-24T00:16:21;29.47;;;15.33;;
19998;SDS011;10160;50.926;4.374;2023-04-24T00:18:47;31.63;;;14.37;;
19998;SDS011;10160;50.926;4.374;2023-04-24T00:21:16;27.07;;;14.53;;
19998;SDS011;10160;50.926;4.374;2023-04-24T00:23:42;30.43;;;14.93;;
19998;SDS011;10160;50.926;4.374;2023-04-24T00:26:09;21.73;;;10.77;;
19998;SDS011;10160;50.926;4.374;2023-04-24T00:28:35;31.67;;;14.63;;
19998;SDS011;10160;50.926;4.374;2023-04-24T00:31:01;21.53;;;12.00;;
19998;SDS011;10160;50.926;4.374;2023-04-24T00:33:26;24.73;;;12.50;;
19998;SDS011;10160;50.926;4.374;2023-04-24T00:35:52;23.27;;;12.43;;
19998;SDS011;10160;50.926;4.374;2023-04-24T00:38:18;32.20;;;14.70;;
19998;SDS011;10160;50.926;4.374;2023-04-24T00:40:44;20.73;;;10.73;;
19998;SDS011;10160;50.926;4.374;2023-04-24T00:43:09;25.27;;;13.53;;
19998;SDS011;10160;50.926;4.374;2023-04-24T00:45:36;29.40;;;13.43;;
19998;SDS011;10160;50.926;4.374;2023-04-24T00:48:01;23.13;;;14.20;;
19998;SDS011;10160;50.926;4.374;2023-04-24T00:50:27;34.73;;;13.73;;
19998;SDS011;10160;50.926;4.374;2023-04-24T00:52:54;25.23;;;13.00;;
19998;SDS011;10160;50.926;4.374;2023-04-24T00:55:20;32.37;;;13.20;;
19998;SDS011;10160;50.926;4.374;2023-04-24T00:57:46;35.80;;;15.13;;
19998;SDS011;10160;50.926;4.374;2023-04-24T01:00:12;25.10;;;12.30;;
19998;SDS011;10160;50.926;4.374;2023-04-24T01:02:40;32.93;;;15.93;;
19998;SDS011;10160;50.926;4.374;2023-04-24T01:05:10;28.60;;;14.90;;
19998;SDS011;10160;50.926;4.374;2023-04-24T01:07:40;22.57;;;12.67;;
19998;SDS011;10160;50.926;4.374;2023-04-24T01:10:10;26.00;;;13.37;;
19998;SDS011;10160;50.926;4.374;2023-04-24T01:12:36;25.10;;;11.43;;
19998;SDS011;10160;50.926;4.374;2023-04-24T01:15:02;21.53;;;11.50;;
19998;SDS011;10160;50.926;4.374;2023-04-24T01:17:29;24.23;;;9.93;;
19998;SDS011;10160;50.926;4.374;2023-04-24T01:19:54;30.50;;;15.13;;
19998;SDS011;10160;50.926;4.374;2023-04-24T01:22:22;35.33;;;16.50;;
19998;SDS011;10160;50.926;4.374;2023-04-24T01:24:47;34.97;;;16.23;;
19998;SDS011;10160;50.926;4.374;2023-04-24T01:27:13;28.30;;;13.80;;
19998;SDS011;10160;50.926;4.374;2023-04-24T01:29:40;37.57;;;15.03;;
19998;SDS011;10160;50.926;4.374;2023-04-24T01:32:06;31.67;;;15.13;;
19998;SDS011;10160;50.926;4.374;2023-04-24T01:34:32;33.17;;;17.47;;
19998;SDS011;10160;50.926;4.374;2023-04-24T01:36:59;29.10;;;14.57;;
19998;SDS011;10160;50.926;4.374;2023-04-24T01:39:25;24.93;;;14.43;;
19998;SDS011;10160;50.926;4.374;2023-04-24T01:41:53;23.23;;;11.67;;
19998;SDS011;10160;50.926;4.374;2023-04-24T01:44:19;28.53;;;14.97;;
19998;SDS011;10160;50.926;4.374;2023-04-24T01:46:45;26.03;;;12.30;;
19998;SDS011;10160;50.926;4.374;2023-04-24T01:49:11;28.77;;;11.90;;
19998;SDS011;10160;50.926;4.374;2023-04-24T01:51:37;26.20;;;12.00;;
19998;SDS011;10160;50.926;4.374;2023-04-24T01:54:03;24.83;;;13.70;;
19998;SDS011;10160;50.926;4.374;2023-04-24T01:56:30;17.83;;;8.67;;
19998;SDS011;10160;50.926;4.374;2023-04-24T01:58:58;20.70;;;9.53;;
19998;SDS011;10160;50.926;4.374;2023-04-24T02:01:25;19.87;;;11.00;;
19998;SDS011;10160;50.926;4.374;2023-04-24T02:03:51;19.43;;;10.57;;
19998;SDS011;10160;50.926;4.374;2023-04-24T02:06:16;22.13;;;10.40;;
19998;SDS011;10160;50.926;4.374;2023-04-24T02:08:42;22.10;;;11.27;;
19998;SDS011;10160;50.926;4.374;2023-04-24T02:11:11;18.83;;;10.97;;
19998;SDS011;10160;50.926;4.374;2023-04-24T02:13:36;24.50;;;10.97;;
19998;SDS011;10160;50.926;4.374;2023-04-24T02:16:02;21.67;;;11.40;;
19998;SDS011;10160;50.926;4.374;2023-04-24T02:18:28;20.27;;;11.47;;
19998;SDS011;10160;50.926;4.374;2023-04-24T02:20:53;17.50;;;10.77;;
19998;SDS011;10160;50.926;4.374;2023-04-24T02:23:19;19.67;;;10.30;;
19998;SDS011;10160;50.926;4.374;2023-04-24T02:25:45;19.67;;;11.03;;
19998;SDS011;10160;50.926;4.374;2023-04-24T02:28:11;20.50;;;10.53;;
19998;SDS011;10160;50.926;4.374;2023-04-24T02:30:36;23.40;;;11.93;;
19998;SDS011;10160;50.926;4.374;2023-04-24T02:33:02;26.87;;;11.03;;
19998;SDS011;10160;50.926;4.374;2023-04-24T02:35:28;21.60;;;10.93;;
19998;SDS011;10160;50.926;4.374;2023-04-24T02:37:54;20.07;;;10.87;;
19998;SDS011;10160;50.926;4.374;2023-04-24T02:40:19;18.87;;;10.00;;
19998;SDS011;10160;50.926;4.374;2023-04-24T02:42:45;16.70;;;10.23;;
19998;SDS011;10160;50.926;4.374;2023-04-24T02:45:10;18.93;;;11.17;;
19998;SDS011;10160;50.926;4.374;2023-04-24T02:47:36;21.90;;;11.07;;
19998;SDS011;10160;50.926;4.374;2023-04-24T02:50:02;19.03;;;10.57;;
19998;SDS011;10160;50.926;4.374;2023-04-24T02:52:28;23.33;;;11.97;;
19998;SDS011;10160;50.926;4.374;2023-04-24T02:54:54;23.47;;;12.10;;
19998;SDS011;10160;50.926;4.374;2023-04-24T02:57:19;23.20;;;11.90;;
19998;SDS011;10160;50.926;4.374;2023-04-24T02:59:45;23.07;;;12.67;;
19998;SDS011;10160;50.926;4.374;2023-04-24T03:02:11;22.83;;;12.43;;
19998;SDS011;10160;50.926;4.374;2023-04-24T03:04:37;18.37;;;9.97;;
19998;SDS011;10160;50.926;4.374;2023-04-24T03:07:02;24.57;;;11.27;;
19998;SDS011;10160;50.926;4.374;2023-04-24T03:09:29;17.50;;;9.23;;
19998;SDS011;10160;50.926;4.374;2023-04-24T03:11:55;19.80;;;11.70;;
19998;SDS011;10160;50.926;4.374;2023-04-24T03:14:21;25.03;;;12.60;;
19998;SDS011;10160;50.926;4.374;2023-04-24T03:16:47;18.63;;;11.33;;
19998;SDS011;10160;50.926;4.374;2023-04-24T03:19:12;26.00;;;13.07;;
19998;SDS011;10160;50.926;4.374;2023-04-24T03:21:38;21.27;;;12.67;;
19998;SDS011;10160;50.926;4.374;2023-04-24T03:24:06;17.57;;;8.47;;
19998;SDS011;10160;50.926;4.374;2023-04-24T03:26:35;17.93;;;9.27;;
19998;SDS011;10160;50.926;4.374;2023-04-24T03:29:00;19.60;;;12.27;;
19998;SDS011;10160;50.926;4.374;2023-04-24T03:31:26;19.57;;;11.80;;
19998;SDS011;10160;50.926;4.374;2023-04-24T03:33:52;22.00;;;11.43;;
19998;SDS011;10160;50.926;4.374;2023-04-24T03:36:17;25.37;;;12.60;;
19998;SDS011;10160;50.926;4.374;2023-04-24T03:38:44;20.67;;;12.23;;
19998;SDS011;10160;50.926;4.374;2023-04-24T03:41:10;16.80;;;9.17;;
19998;SDS011;10160;50.926;4.374;2023-04-24T03:43:36;16.63;;;9.07;;
19998;SDS011;10160;50.926;4.374;2023-04-24T03:46:03;13.37;;;7.43;;
19998;SDS011;10160;50.926;4.374;2023-04-24T03:48:29;14.80;;;8.70;;
19998;SDS011;10160;50.926;4.374;2023-04-24T03:50:54;14.43;;;8.63;;
19998;SDS011;10160;50.926;4.374;2023-04-24T03:53:20;12.90;;;7.37;;
19998;SDS011;10160;50.926;4.374;2023-04-24T03:55:46;16.10;;;8.97;;
19998;SDS011;10160;50.926;4.374;2023-04-24T03:58:12;13.50;;;8.27;;
19998;SDS011;10160;50.926;4.374;2023-04-24T04:00:40;12.60;;;8.27;;
19998;SDS011;10160;50.926;4.374;2023-04-24T04:03:06;15.27;;;8.70;;
19998;SDS011;10160;50.926;4.374;2023-04-24T04:05:32;16.70;;;8.10;;
19998;SDS011;10160;50.926;4.374;2023-04-24T04:07:57;14.17;;;7.90;;
19998;SDS011;10160;50.926;4.374;2023-04-24T04:10:23;13.77;;;8.33;;
19998;SDS011;10160;50.926;4.374;2023-04-24T04:12:49;13.70;;;8.23;;
19998;SDS011;10160;50.926;4.374;2023-04-24T04:15:14;14.17;;;6.87;;
19998;SDS011;10160;50.926;4.374;2023-04-24T04:17:40;12.67;;;7.40;;
19998;SDS011;10160;50.926;4.374;2023-04-24T04:20:06;10.60;;;6.20;;
19998;SDS011;10160;50.926;4.374;2023-04-24T04:22:35;11.33;;;6.00;;
19998;SDS011;10160;50.926;4.374;2023-04-24T04:25:01;11.70;;;5.80;;
19998;SDS011;10160;50.926;4.374;2023-04-24T04:27:27;16.67;;;8.17;;
19998;SDS011;10160;50.926;4.374;2023-04-24T04:29:54;14.70;;;8.50;;
19998;SDS011;10160;50.926;4.374;2023-04-24T04:32:21;17.03;;;8.53;;
19998;SDS011;10160;50.926;4.374;2023-04-24T04:34:47;14.90;;;7.97;;
19998;SDS011;10160;50.926;4.374;2023-04-24T04:37:14;15.07;;;8.50;;
19998;SDS011;10160;50.926;4.374;2023-04-24T04:39:40;17.93;;;8.93;;
19998;SDS011;10160;50.926;4.374;2023-04-24T04:42:06;18.23;;;9.80;;
19998;SDS011;10160;50.926;4.374;2023-04-24T04:44:31;16.93;;;10.37;;
19998;SDS011;10160;50.926;4.374;2023-04-24T04:46:57;19.40;;;10.50;;
19998;SDS011;10160;50.926;4.374;2023-04-24T04:49:25;19.20;;;10.33;;
19998;SDS011;10160;50.926;4.374;2023-04-24T04:51:53;22.20;;;11.03;;
19998;SDS011;10160;50.926;4.374;2023-04-24T04:54:18;17.77;;;10.90;;
19998;SDS011;10160;50.926;4.374;2023-04-24T04:56:44;20.70;;;10.87;;
19998;SDS011;10160;50.926;4.374;2023-04-24T04:59:10;18.60;;;11.20;;
19998;SDS011;10160;50.926;4.374;2023-04-24T05:01:36;18.03;;;10.17;;
19998;SDS011;10160;50.926;4.374;2023-04-24T05:04:01;22.60;;;11.70;;
19998;SDS011;10160;50.926;4.374;2023-04-24T05:06:27;23.53;;;12.50;;
19998;SDS011;10160;50.926;4.374;2023-04-24T05:08:53;22.60;;;12.77;;
19998;SDS011;10160;50.926;4.374;2023-04-24T05:11:22;26.87;;;12.00;;
19998;SDS011;10160;50.926;4.374;2023-04-24T05:13:48;23.23;;;12.13;;
19998;SDS011;10160;50.926;4.374;2023-04-24T05:16:14;25.07;;;12.87;;
19998;SDS011;10160;50.926;4.374;2023-04-24T05:18:40;23.07;;;12.20;;
19998;SDS011;10160;50.926;4.374;2023-04-24T05:21:06;23.27;;;12.63;;
19998;SDS011;10160;50.926;4.374;2023-04-24T05:23:31;27.67;;;13.17;;
19998;SDS011;10160;50.926;4.374;2023-04-24T05:25:57;23.63;;;12.80;;
19998;SDS011;10160;50.926;4.374;2023-04-24T05:28:23;25.93;;;13.20;;
19998;SDS011;10160;50.926;4.374;2023-04-24T05:30:51;24.90;;;12.70;;
19998;SDS011;10160;50.926;4.374;2023-04-24T05:33:17;22.30;;;12.83;;
19998;SDS011;10160;50.926;4.374;2023-04-24T05:35:42;22.57;;;12.53;;
19998;SDS011;10160;50.926;4.374;2023-04-24T05:38:12;25.70;;;12.17;;
19998;SDS011;10160;50.926;4.374;2023-04-24T05:40:38;25.33;;;12.43;;
19998;SDS011;10160;50.926;4.374;2023-04-24T05:43:04;31.23;;;13.50;;
19998;SDS011;10160;50.926;4.374;2023-04-24T05:45:30;22.47;;;12.20;;
19998;SDS011;10160;50.926;4.374;2023-04-24T05:47:56;23.43;;;12.93;;
19998;SDS011;10160;50.926;4.374;2023-04-24T05:50:22;25.70;;;12.47;;
19998;SDS011;10160;50.926;4.374;2023-04-24T05:52:48;31.73;;;12.07;;
19998;SDS011;10160;50.926;4.374;2023-04-24T05:55:13;26.87;;;13.90;;
19998;SDS011;10160;50.926;4.374;2023-04-24T05:57:42;26.50;;;14.00;;
19998;SDS011;10160;50.926;4.374;2023-04-24T06:00:08;24.67;;;12.50;;
19998;SDS011;10160;50.926;4.374;2023-04-24T06:02:37;24.73;;;13.23;;
19998;SDS011;10160;50.926;4.374;2023-04-24T06:05:03;24.33;;;14.70;;
19998;SDS011;10160;50.926;4.374;2023-04-24T06:07:30;22.10;;;13.07;;
19998;SDS011;10160;50.926;4.374;2023-04-24T06:09:56;22.80;;;13.37;;
19998;SDS011;10160;50.926;4.374;2023-04-24T06:12:22;25.83;;;14.63;;
19998;SDS011;10160;50.926;4.374;2023-04-24T06:14:47;23.30;;;14.73;;
19998;SDS011;10160;50.926;4.374;2023-04-24T06:17:13;24.80;;;13.83;;
19998;SDS011;10160;50.926;4.374;2023-04-24T06:19:39;26.13;;;14.50;;
19998;SDS011;10160;50.926;4.374;2023-04-24T06:22:05;27.97;;;14.17;;
19998;SDS011;10160;50.926;4.374;2023-04-24T06:24:31;26.57;;;15.07;;
19998;SDS011;10160;50.926;4.374;2023-04-24T06:26:57;25.10;;;12.67;;
19998;SDS011;10160;50.926;4.374;2023-04-24T06:29:24;24.30;;;12.40;;
19998;SDS011;10160;50.926;4.374;2023-04-24T06:31:50;26.07;;;13.50;;
19998;SDS011;10160;50.926;4.374;2023-04-24T06:34:16;31.93;;;14.37;;
19998;SDS011;10160;50.926;4.374;2023-04-24T06:36:41;30.53;;;14.50;;
19998;SDS011;10160;50.926;4.374;2023-04-24T06:39:07;28.53;;;14.70;;
19998;SDS011;10160;50.926;4.374;2023-04-24T06:41:33;30.17;;;15.43;;
19998;SDS011;10160;50.926;4.374;2023-04-24T06:43:58;29.87;;;15.97;;
19998;SDS011;10160;50.926;4.374;2023-04-24T06:46:24;30.73;;;14.97;;
19998;SDS011;10160;50.926;4.374;2023-04-24T06:48:51;33.80;;;15.63;;
19998;SDS011;10160;50.926;4.374;2023-04-24T06:51:20;32.63;;;16.60;;
19998;SDS011;10160;50.926;4.374;2023-04-24T06:53:50;31.43;;;15.90;;
19998;SDS011;10160;50.926;4.374;2023-04-24T06:56:17;39.10;;;16.23;;
19998;SDS011;10160;50.926;4.374;2023-04-24T06:58:42;34.90;;;17.43;;
19998;SDS011;10160;50.926;4.374;2023-04-24T07:01:08;37.70;;;17.20;;
19998;SDS011;10160;50.926;4.374;2023-04-24T07:03:35;35.93;;;16.13;;
19998;SDS011;10160;50.926;4.374;2023-04-24T07:06:00;41.70;;;17.63;;
19998;SDS011;10160;50.926;4.374;2023-04-24T07:08:26;35.20;;;16.63;;
19998;SDS011;10160;50.926;4.374;2023-04-24T07:10:52;31.40;;;16.43;;
19998;SDS011;10160;50.926;4.374;2023-04-24T07:13:17;31.67;;;16.80;;
19998;SDS011;10160;50.926;4.374;2023-04-24T07:15:43;39.77;;;16.73;;
19998;SDS011;10160;50.926;4.374;2023-04-24T07:18:09;38.90;;;18.23;;
19998;SDS011;10160;50.926;4.374;2023-04-24T07:20:35;34.43;;;17.63;;
19998;SDS011;10160;50.926;4.374;2023-04-24T07:23:01;28.73;;;16.27;;
19998;SDS011;10160;50.926;4.374;2023-04-24T07:25:27;33.53;;;16.53;;
19998;SDS011;10160;50.926;4.374;2023-04-24T07:27:52;31.60;;;14.63;;
19998;SDS011;10160;50.926;4.374;2023-04-24T07:30:18;34.60;;;14.70;;
19998;SDS011;10160;50.926;4.374;2023-04-24T07:32:44;26.67;;;13.83;;
19998;SDS011;10160;50.926;4.374;2023-04-24T07:35:09;36.10;;;14.27;;
19998;SDS011;10160;50.926;4.374;2023-04-24T07:37:35;31.40;;;14.73;;
19998;SDS011;10160;50.926;4.374;2023-04-24T07:40:01;22.50;;;10.33;;
19998;SDS011;10160;50.926;4.374;2023-04-24T07:42:28;23.97;;;12.93;;
19998;SDS011;10160;50.926;4.374;2023-04-24T07:44:55;28.70;;;12.83;;
19998;SDS011;10160;50.926;4.374;2023-04-24T07:47:21;23.73;;;11.87;;
19998;SDS011;10160;50.926;4.374;2023-04-24T07:49:47;30.90;;;11.87;;
19998;SDS011;10160;50.926;4.374;2023-04-24T07:52:13;22.73;;;11.17;;
19998;SDS011;10160;50.926;4.374;2023-04-24T07:54:38;27.10;;;10.90;;
19998;SDS011;10160;50.926;4.374;2023-04-24T07:57:04;21.47;;;9.80;;
19998;SDS011;10160;50.926;4.374;2023-04-24T07:59:31;22.50;;;10.00;;
19998;SDS011;10160;50.926;4.374;2023-04-24T08:01:57;19.43;;;10.27;;
19998;SDS011;10160;50.926;4.374;2023-04-24T08:04:23;20.87;;;9.93;;
19998;SDS011;10160;50.926;4.374;2023-04-24T08:06:48;21.47;;;9.33;;
19998;SDS011;10160;50.926;4.374;2023-04-24T08:09:14;23.37;;;10.30;;
19998;SDS011;10160;50.926;4.374;2023-04-24T08:11:40;24.60;;;9.60;;
19998;SDS011;10160;50.926;4.374;2023-04-24T08:14:05;29.40;;;10.77;;
19998;SDS011;10160;50.926;4.374;2023-04-24T08:16:32;27.07;;;10.70;;
19998;SDS011;10160;50.926;4.374;2023-04-24T08:18:59;23.33;;;9.97;;
19998;SDS011;10160;50.926;4.374;2023-04-24T08:21:25;27.90;;;10.60;;
19998;SDS011;10160;50.926;4.374;2023-04-24T08:23:52;25.17;;;8.87;;
19998;SDS011;10160;50.926;4.374;2023-04-24T08:26:17;26.17;;;8.97;;
19998;SDS011;10160;50.926;4.374;2023-04-24T08:28:43;18.97;;;8.70;;
19998;SDS011;10160;50.926;4.374;2023-04-24T08:31:09;21.67;;;8.53;;
19998;SDS011;10160;50.926;4.374;2023-04-24T08:33:35;23.40;;;8.57;;
19998;SDS011;10160;50.926;4.374;2023-04-24T08:36:04;21.97;;;7.40;;
19998;SDS011;10160;50.926;4.374;2023-04-24T08:38:30;19.97;;;8.17;;
19998;SDS011;10160;50.926;4.374;2023-04-24T08:40:57;22.07;;;7.90;;
19998;SDS011;10160;50.926;4.374;2023-04-24T08:43:24;18.07;;;7.70;;
19998;SDS011;10160;50.926;4.374;2023-04-24T08:45:51;17.40;;;6.93;;
19998;SDS011;10160;50.926;4.374;2023-04-24T08:48:17;18.20;;;7.40;;
19998;SDS011;10160;50.926;4.374;2023-04-24T08:50:43;13.70;;;7.40;;
19998;SDS011;10160;50.926;4.374;2023-04-24T08:53:10;22.00;;;7.37;;
19998;SDS011;10160;50.926;4.374;2023-04-24T08:55:36;16.30;;;6.93;;
19998;SDS011;10160;50.926;4.374;2023-04-24T08:58:03;15.17;;;6.40;;
19998;SDS011;10160;50.926;4.374;2023-04-24T09:00:29;22.37;;;6.77;;
19998;SDS011;10160;50.926;4.374;2023-04-24T09:02:55;17.83;;;7.23;;
19998;SDS011;10160;50.926;4.374;2023-04-24T09:05:22;17.33;;;6.93;;
19998;SDS011;10160;50.926;4.374;2023-04-24T09:07:54;16.83;;;6.53;;
19998;SDS011;10160;50.926;4.374;2023-04-24T09:10:21;19.97;;;7.67;;
19998;SDS011;10160;50.926;4.374;2023-04-24T09:12:49;14.83;;;6.83;;
19998;SDS011;10160;50.926;4.374;2023-04-24T09:15:16;17.93;;;6.47;;
19998;SDS011;10160;50.926;4.374;2023-04-24T09:17:43;14.03;;;5.57;;
19998;SDS011;10160;50.926;4.374;2023-04-24T09:20:08;13.33;;;6.13;;
19998;SDS011;10160;50.926;4.374;2023-04-24T09:22:34;18.23;;;5.87;;
19998;SDS011;10160;50.926;4.374;2023-04-24T09:25:02;13.43;;;5.13;;
19998;SDS011;10160;50.926;4.374;2023-04-24T09:27:30;16.80;;;6.30;;
19998;SDS011;10160;50.926;4.374;2023-04-24T09:29:57;16.93;;;5.20;;
19998;SDS011;10160;50.926;4.374;2023-04-24T09:32:23;16.73;;;5.03;;
19998;SDS011;10160;50.926;4.374;2023-04-24T09:35:08;14.57;;;5.00;;
19998;SDS011;10160;50.926;4.374;2023-04-24T09:37:38;13.53;;;4.77;;
19998;SDS011;10160;50.926;4.374;2023-04-24T09:40:18;8.70;;;3.90;;
19998;SDS011;10160;50.926;4.374;2023-04-24T09:42:46;16.53;;;4.43;;
19998;SDS011;10160;50.926;4.374;2023-04-24T09:45:20;12.37;;;4.30;;
19998;SDS011;10160;50.926;4.374;2023-04-24T09:47:46;11.67;;;4.80;;
19998;SDS011;10160;50.926;4.374;2023-04-24T09:50:17;17.20;;;5.23;;
19998;SDS011;10160;50.926;4.374;2023-04-24T09:52:44;15.97;;;5.10;;
19998;SDS011;10160;50.926;4.374;2023-04-24T09:55:27;14.43;;;5.00;;
19998;SDS011;10160;50.926;4.374;2023-04-24T09:57:56;11.47;;;4.70;;
19998;SDS011;10160;50.926;4.374;2023-04-24T10:00:29;11.47;;;4.77;;
19998;SDS011;10160;50.926;4.374;2023-04-24T10:02:57;8.13;;;4.00;;
19998;SDS011;10160;50.926;4.374;2023-04-24T10:05:30;14.40;;;4.47;;
19998;SDS011;10160;50.926;4.374;2023-04-24T10:08:01;16.43;;;4.70;;
19998;SDS011;10160;50.926;4.374;2023-04-24T10:10:28;9.87;;;5.00;;
19998;SDS011;10160;50.926;4.374;2023-04-24T10:12:54;12.43;;;4.70;;
19998;SDS011;10160;50.926;4.374;2023-04-24T10:15:20;12.93;;;4.90;;
19998;SDS011;10160;50.926;4.374;2023-04-24T10:17:50;11.73;;;5.33;;
19998;SDS011;10160;50.926;4.374;2023-04-24T10:20:20;11.07;;;4.43;;
19998;SDS011;10160;50.926;4.374;2023-04-24T10:22:51;13.00;;;4.83;;
19998;SDS011;10160;50.926;4.374;2023-04-24T10:25:19;12.70;;;4.80;;
19998;SDS011;10160;50.926;4.374;2023-04-24T10:27:46;9.87;;;4.43;;
19998;SDS011;10160;50.926;4.374;2023-04-24T10:30:13;12.53;;;5.07;;
19998;SDS011;10160;50.926;4.374;2023-04-24T10:32:39;10.03;;;4.97;;
19998;SDS011;10160;50.926;4.374;2023-04-24T10:35:09;11.90;;;5.17;;
19998;SDS011;10160;50.926;4.374;2023-04-24T10:37:42;11.53;;;5.43;;
19998;SDS011;10160;50.926;4.374;2023-04-24T10:40:10;12.90;;;5.07;;
19998;SDS011;10160;50.926;4.374;2023-04-24T10:42:40;18.47;;;5.47;;
19998;SDS011;10160;50.926;4.374;2023-04-24T10:45:15;12.10;;;4.57;;
19998;SDS011;10160;50.926;4.374;2023-04-24T10:47:43;13.90;;;4.87;;
19998;SDS011;10160;50.926;4.374;2023-04-24T10:50:22;13.93;;;5.03;;
19998;SDS011;10160;50.926;4.374;2023-04-24T10:52:48;10.47;;;4.60;;
19998;SDS011;10160;50.926;4.374;2023-04-24T10:58:06;13.47;;;5.17;;
19998;SDS011;10160;50.926;4.374;2023-04-24T11:00:32;14.17;;;4.13;;
19998;SDS011;10160;50.926;4.374;2023-04-24T11:02:58;11.80;;;4.30;;
19998;SDS011;10160;50.926;4.374;2023-04-24T11:05:49;9.30;;;4.43;;
19998;SDS011;10160;50.926;4.374;2023-04-24T11:10:55;10.77;;;4.10;;
19998;SDS011;10160;50.926;4.374;2023-04-24T11:13:24;10.93;;;4.80;;
19998;SDS011;10160;50.926;4.374;2023-04-24T11:18:37;12.57;;;4.43;;
19998;SDS011;10160;50.926;4.374;2023-04-24T11:21:13;13.97;;;4.53;;
19998;SDS011;10160;50.926;4.374;2023-04-24T11:23:41;11.67;;;4.87;;
19998;SDS011;10160;50.926;4.374;2023-04-24T11:26:10;10.80;;;4.67;;
19998;SDS011;10160;50.926;4.374;2023-04-24T11:28:43;10.47;;;4.43;;
19998;SDS011;10160;50.926;4.374;2023-04-24T11:36:38;10.93;;;4.70;;
19998;SDS011;10160;50.926;4.374;2023-04-24T11:39:04;13.00;;;5.10;;
19998;SDS011;10160;50.926;4.374;2023-04-24T11:41:30;16.03;;;4.00;;
19998;SDS011;10160;50.926;4.374;2023-04-24T11:43:56;9.63;;;4.13;;
19998;SDS011;10160;50.926;4.374;2023-04-24T11:46:22;11.37;;;5.17;;
19998;SDS011;10160;50.926;4.374;2023-04-24T11:48:51;9.90;;;4.57;;
19998;SDS011;10160;50.926;4.374;2023-04-24T11:51:17;15.53;;;5.70;;
19998;SDS011;10160;50.926;4.374;2023-04-24T11:53:42;9.37;;;4.10;;
19998;SDS011;10160;50.926;4.374;2023-04-24T11:56:08;9.93;;;3.80;;
19998;SDS011;10160;50.926;4.374;2023-04-24T11:58:35;16.60;;;5.70;;
19998;SDS011;10160;50.926;4.374;2023-04-24T12:01:02;12.73;;;5.13;;
19998;SDS011;10160;50.926;4.374;2023-04-24T12:03:29;12.83;;;4.87;;
19998;SDS011;10160;50.926;4.374;2023-04-24T12:06:04;13.17;;;4.97;;
19998;SDS011;10160;50.926;4.374;2023-04-24T12:08:32;14.17;;;4.77;;
19998;SDS011;10160;50.926;4.374;2023-04-24T12:11:01;8.43;;;3.87;;
19998;SDS011;10160;50.926;4.374;2023-04-24T12:13:28;11.13;;;4.30;;
19998;SDS011;10160;50.926;4.374;2023-04-24T12:16:06;10.40;;;4.93;;
19998;SDS011;10160;50.926;4.374;2023-04-24T12:18:42;11.53;;;5.53;;
19998;SDS011;10160;50.926;4.374;2023-04-24T12:21:19;10.43;;;4.17;;
19998;SDS011;10160;50.926;4.374;2023-04-24T12:23:48;10.13;;;4.27;;
19998;SDS011;10160;50.926;4.374;2023-04-24T12:26:17;10.33;;;4.20;;
19998;SDS011;10160;50.926;4.374;2023-04-24T12:28:46;8.07;;;4.30;;
19998;SDS011;10160;50.926;4.374;2023-04-24T12:31:15;8.47;;;4.40;;
19998;SDS011;10160;50.926;4.374;2023-04-24T12:33:41;10.03;;;5.03;;
19998;SDS011;10160;50.926;4.374;2023-04-24T12:36:09;10.40;;;5.20;;
19998;SDS011;10160;50.926;4.374;2023-04-24T12:38:37;13.23;;;5.00;;
19998;SDS011;10160;50.926;4.374;2023-04-24T12:41:10;9.47;;;4.57;;
19998;SDS011;10160;50.926;4.374;2023-04-24T12:43:37;7.47;;;4.53;;
19998;SDS011;10160;50.926;4.374;2023-04-24T12:46:03;12.03;;;4.73;;
19998;SDS011;10160;50.926;4.374;2023-04-24T12:48:30;12.07;;;5.13;;
19998;SDS011;10160;50.926;4.374;2023-04-24T12:50:59;11.63;;;4.33;;
19998;SDS011;10160;50.926;4.374;2023-04-24T12:53:27;9.53;;;5.03;;
19998;SDS011;10160;50.926;4.374;2023-04-24T12:55:55;13.43;;;4.80;;
19998;SDS011;10160;50.926;4.374;2023-04-24T12:58:21;12.87;;;4.53;;
19998;SDS011;10160;50.926;4.374;2023-04-24T13:00:47;9.90;;;3.60;;
19998;SDS011;10160;50.926;4.374;2023-04-24T13:03:13;11.10;;;3.50;;
19998;SDS011;10160;50.926;4.374;2023-04-24T13:05:39;9.03;;;3.47;;
19998;SDS011;10160;50.926;4.374;2023-04-24T13:08:06;7.30;;;3.20;;
19998;SDS011;10160;50.926;4.374;2023-04-24T13:10:31;8.77;;;3.30;;
19998;SDS011;10160;50.926;4.374;2023-04-24T13:12:57;10.53;;;3.23;;
19998;SDS011;10160;50.926;4.374;2023-04-24T13:15:23;8.80;;;2.80;;
19998;SDS011;10160;50.926;4.374;2023-04-24T13:17:50;8.00;;;2.70;;
19998;SDS011;10160;50.926;4.374;2023-04-24T13:20:15;7.67;;;2.53;;
19998;SDS011;10160;50.926;4.374;2023-04-24T13:22:42;10.23;;;2.70;;
19998;SDS011;10160;50.926;4.374;2023-04-24T13:25:08;7.70;;;3.00;;
19998;SDS011;10160;50.926;4.374;2023-04-24T13:27:34;6.70;;;2.60;;
19998;SDS011;10160;50.926;4.374;2023-04-24T13:29:59;6.73;;;2.83;;
19998;SDS011;10160;50.926;4.374;2023-04-24T13:32:25;6.20;;;2.60;;
19998;SDS011;10160;50.926;4.374;2023-04-24T13:34:51;7.63;;;2.53;;
19998;SDS011;10160;50.926;4.374;2023-04-24T13:37:17;7.97;;;2.63;;
19998;SDS011;10160;50.926;4.374;2023-04-24T13:39:43;8.47;;;2.77;;
19998;SDS011;10160;50.926;4.374;2023-04-24T13:42:08;8.10;;;2.80;;
19998;SDS011;10160;50.926;4.374;2023-04-24T13:44:34;4.23;;;1.97;;
19998;SDS011;10160;50.926;4.374;2023-04-24T13:47:00;6.53;;;2.77;;
19998;SDS011;10160;50.926;4.374;2023-04-24T13:49:26;9.45;;;3.40;;
19998;SDS011;10160;50.926;4.374;2023-04-24T13:51:53;6.82;;;2.55;;
19998;SDS011;10160;50.926;4.374;2023-04-24T13:54:20;9.05;;;2.47;;
19998;SDS011;10160;50.926;4.374;2023-04-24T13:56:47;6.53;;;2.97;;
19998;SDS011;10160;50.926;4.374;2023-04-24T13:59:12;8.17;;;2.90;;
19998;SDS011;10160;50.926;4.374;2023-04-24T14:01:38;8.03;;;2.50;;
19998;SDS011;10160;50.926;4.374;2023-04-24T14:04:04;6.87;;;2.40;;
19998;SDS011;10160;50.926;4.374;2023-04-24T14:06:30;6.97;;;2.43;;
19998;SDS011;10160;50.926;4.374;2023-04-24T14:08:56;9.07;;;2.63;;
19998;SDS011;10160;50.926;4.374;2023-04-24T14:11:22;7.80;;;2.10;;
19998;SDS011;10160;50.926;4.374;2023-04-24T14:13:48;8.80;;;2.20;;
19998;SDS011;10160;50.926;4.374;2023-04-24T14:16:13;10.13;;;2.30;;
19998;SDS011;10160;50.926;4.374;2023-04-24T14:18:39;5.87;;;2.40;;
19998;SDS011;10160;50.926;4.374;2023-04-24T14:21:05;6.97;;;2.00;;
19998;SDS011;10160;50.926;4.374;2023-04-24T14:23:31;5.70;;;2.03;;
19998;SDS011;10160;50.926;4.374;2023-04-24T14:25:57;6.88;;;2.17;;
19998;SDS011;10160;50.926;4.374;2023-04-24T14:28:24;4.15;;;1.83;;
19998;SDS011;10160;50.926;4.374;2023-04-24T14:30:51;4.80;;;1.73;;
19998;SDS011;10160;50.926;4.374;2023-04-24T14:33:17;5.22;;;1.80;;
19998;SDS011;10160;50.926;4.374;2023-04-24T14:35:43;6.85;;;1.92;;
19998;SDS011;10160;50.926;4.374;2023-04-24T14:38:09;7.18;;;1.83;;
19998;SDS011;10160;50.926;4.374;2023-04-24T14:40:35;6.35;;;2.60;;
19998;SDS011;10160;50.926;4.374;2023-04-24T14:43:00;6.97;;;2.13;;